TimeEST,TemperatureF,Dew PointF,Humidity,Sea Level PressureIn,VisibilityMPH,Wind Direction,Wind SpeedMPH,Gust SpeedMPH,PrecipitationIn,Events,Conditions,WindDirDegrees,DateUTC
12:53 AM,32.0,27.0,82,30.48,6.0,Calm,Calm,-,N/A,,Haze,0,2012-11-17 05:53:00
1:53 AM,30.9,26.1,82,30.48,7.0,NE,3.5,-,N/A,,Clear,50,2012-11-17 06:53:00
2:53 AM,30.9,26.1,82,30.48,6.0,ENE,5.8,-,N/A,,Haze,70,2012-11-17 07:53:00
3:53 AM,32.0,28.0,85,30.48,6.0,Calm,Calm,-,N/A,,Clear,0,2012-11-17 08:53:00
4:53 AM,32.0,27.0,82,30.49,6.0,ENE,4.6,-,N/A,,Haze,60,2012-11-17 09:53:00
5:53 AM,28.9,25.0,85,30.50,5.0,East,5.8,-,N/A,,Clear,80,2012-11-17 10:53:00
6:53 AM,28.0,25.0,88,30.51,4.0,ENE,5.8,-,N/A,,Clear,70,2012-11-17 11:53:00
7:37 AM,28.4,26.6,93,30.50,2.5,NNE,4.6,-,N/A,,Clear,20,2012-11-17 12:37:00
7:44 AM,30.2,26.6,86,30.51,3.0,NNE,4.6,-,N/A,,Clear,20,2012-11-17 12:44:00
7:53 AM,28.9,26.1,89,30.54,3.0,North,4.6,-,N/A,,Clear,10,2012-11-17 12:53:00
8:53 AM,37.0,30.9,79,30.56,4.0,NE,6.9,-,N/A,,Haze,50,2012-11-17 13:53:00
9:53 AM,42.1,34.0,73,30.56,5.0,East,9.2,-,N/A,,Haze,80,2012-11-17 14:53:00
10:53 AM,46.9,35.1,63,30.56,8.0,ESE,6.9,-,N/A,,Clear,110,2012-11-17 15:53:00
11:53 AM,51.1,35.1,54,30.54,9.0,Variable,4.6,-,N/A,,Clear,0,2012-11-17 16:53:00
12:53 PM,54.0,34.0,47,30.51,10.0,ENE,5.8,-,N/A,,Clear,60,2012-11-17 17:53:00
1:53 PM,55.9,32.0,40,30.48,10.0,East,3.5,-,N/A,,Clear,80,2012-11-17 18:53:00
2:53 PM,57.0,33.1,40,30.46,10.0,East,8.1,-,N/A,,Clear,80,2012-11-17 19:53:00
3:53 PM,57.0,33.1,40,30.45,10.0,East,9.2,-,N/A,,Clear,80,2012-11-17 20:53:00
4:53 PM,53.1,34.0,48,30.45,10.0,ENE,8.1,-,N/A,,Clear,70,2012-11-17 21:53:00
5:53 PM,44.1,30.0,58,30.46,10.0,ENE,6.9,-,N/A,,Clear,70,2012-11-17 22:53:00
6:53 PM,41.0,30.0,65,30.47,10.0,East,6.9,-,N/A,,Clear,80,2012-11-17 23:53:00
7:53 PM,39.0,30.0,70,30.47,10.0,ENE,6.9,-,N/A,,Clear,70,2012-11-18 00:53:00
8:53 PM,41.0,28.9,62,30.47,10.0,NE,4.6,-,N/A,,Clear,50,2012-11-18 01:53:00
9:53 PM,37.9,28.9,70,30.47,10.0,ENE,6.9,-,N/A,,Clear,70,2012-11-18 02:53:00
10:53 PM,37.9,28.9,70,30.46,10.0,East,8.1,-,N/A,,Clear,90,2012-11-18 03:53:00
11:53 PM,37.0,28.0,70,30.45,10.0,East,9.2,-,N/A,,Clear,90,2012-11-18 04:53:00